Time;durP1;ratioP1;P1;durP2;ratioP2;P2;SDS_P1;SDS_P2;PMS_P1;PMS_P2;Temp;Humidity;BMP_temperature;BMP_pressure;BME280_temperature;BME280_humidity;BME280_pressure;Samples;Min_cycle;Max_cycle;Signal;HPM_P1;HPM_P2
2023/04/22 00:02:02;;;;;;;1.95;1.55;;;;;;;;;;5044802;28;20045;-41
2023/04/22 00:04:27;;;;;;;1.80;1.67;;;;;;;;;;5045758;28;20036;-44
2023/04/22 00:06:53;;;;;;;1.58;1.40;;;;;;;;;;5041648;28;20049;-46
2023/04/22 00:09:18;;;;;;;2.35;1.73;;;;;;;;;;5044328;28;20425;-43
2023/04/22 00:11:43;;;;;;;3.38;2.00;;;;;;;;;;5041224;28;20053;-42
2023/04/22 00:14:09;;;;;;;1.90;1.63;;;;;;;;;;5043686;28;20124;-43
2023/04/22 00:16:34;;;;;;;3.60;1.98;;;;;;;;;;5038852;28;20977;-42
2023/04/22 00:18:59;;;;;;;2.03;1.63;;;;;;;;;;5040722;28;20025;-44
2023/04/22 00:21:26;;;;;;;5.28;1.50;;;;;;;;;;5043189;28;20056;-47
2023/04/22 00:23:51;;;;;;;3.60;1.63;;;;;;;;;;5043802;28;20033;-44
2023/04/22 00:26:17;;;;;;;3.83;1.75;;;;;;;;;;5043039;28;20405;-42
2023/04/22 00:28:42;;;;;;;2.97;1.90;;;;;;;;;;5041185;28;20029;-42
2023/04/22 00:31:07;;;;;;;4.20;1.50;;;;;;;;;;5042428;28;20037;-44
2023/04/22 00:33:33;;;;;;;2.95;1.70;;;;;;;;;;5043845;28;20017;-45
2023/04/22 00:35:58;;;;;;;5.55;1.90;;;;;;;;;;5041219;28;20037;-41
2023/04/22 00:38:23;;;;;;;3.60;1.67;;;;;;;;;;5040439;28;20467;-45
2023/04/22 00:40:49;;;;;;;2.13;1.67;;;;;;;;;;5045061;28;20461;-48
2023/04/22 00:43:16;;;;;;;2.65;1.90;;;;;;;;;;5048323;28;20068;-43
2023/04/22 00:45:42;;;;;;;2.63;1.92;;;;;;;;;;5045689;28;20545;-42
2023/04/22 00:48:08;;;;;;;2.58;1.90;;;;;;;;;;5046292;28;20120;-42
2023/04/22 00:50:33;;;;;;;2.60;1.80;;;;;;;;;;5046925;28;20033;-43
2023/04/22 00:52:59;;;;;;;6.10;2.33;;;;;;;;;;5043904;28;20075;-43
2023/04/22 00:55:24;;;;;;;3.92;2.03;;;;;;;;;;5047139;28;20029;-41
2023/04/22 00:57:51;;;;;;;3.17;1.88;;;;;;;;;;5044815;28;20079;-42
2023/04/22 01:00:18;;;;;;;1.60;1.50;;;;;;;;;;5046873;28;20036;-45
2023/04/22 01:02:44;;;;;;;2.63;1.60;;;;;;;;;;5047402;28;20438;-43
2023/04/22 01:05:10;;;;;;;3.67;1.65;;;;;;;;;;5043475;28;20116;-42
2023/04/22 01:07:35;;;;;;;4.00;1.63;;;;;;;;;;5042764;28;20032;-48
2023/04/22 01:10:02;;;;;;;4.45;1.60;;;;;;;;;;5048805;28;20107;-44
2023/04/22 01:12:27;;;;;;;2.58;1.50;;;;;;;;;;5047443;28;20095;-42
2023/04/22 01:14:53;;;;;;;4.25;1.45;;;;;;;;;;5045519;28;20050;-43
2023/04/22 01:17:20;;;;;;;2.95;1.55;;;;;;;;;;5043198;28;20037;-43
2023/04/22 01:19:47;;;;;;;4.00;1.70;;;;;;;;;;5047535;28;20108;-42
2023/04/22 01:22:13;;;;;;;2.92;1.70;;;;;;;;;;5045828;28;20547;-48
2023/04/22 01:24:38;;;;;;;4.07;1.38;;;;;;;;;;5045093;28;20108;-42
2023/04/22 01:27:04;;;;;;;2.28;1.42;;;;;;;;;;5045666;28;20552;-42
2023/04/22 01:29:29;;;;;;;3.10;1.40;;;;;;;;;;5044880;28;20040;-43
2023/04/22 01:31:55;;;;;;;2.80;1.30;;;;;;;;;;5045649;28;20336;-46
2023/04/22 01:34:21;;;;;;;1.90;1.45;;;;;;;;;;5044618;28;20076;-42
2023/04/22 01:36:46;;;;;;;3.28;1.60;;;;;;;;;;5045996;28;20040;-45
2023/04/22 01:39:12;;;;;;;2.75;1.50;;;;;;;;;;5043163;28;20036;-43
2023/04/22 01:41:38;;;;;;;4.47;1.42;;;;;;;;;;5046997;28;20025;-43
2023/04/22 01:44:03;;;;;;;4.35;1.30;;;;;;;;;;5047165;28;20103;-44
2023/04/22 01:46:29;;;;;;;3.97;1.40;;;;;;;;;;5045163;28;20950;-44
2023/04/22 01:48:54;;;;;;;2.35;1.60;;;;;;;;;;5045421;28;20036;-42
2023/04/22 01:51:20;;;;;;;4.88;1.60;;;;;;;;;;5042484;28;20599;-42
2023/04/22 01:53:47;;;;;;;6.53;1.52;;;;;;;;;;5044147;28;20025;-45
2023/04/22 01:56:13;;;;;;;1.55;1.33;;;;;;;;;;5041659;28;20037;-43
2023/04/22 01:58:39;;;;;;;3.08;1.25;;;;;;;;;;5041347;28;20028;-41
2023/04/22 02:01:05;;;;;;;1.40;1.30;;;;;;;;;;5042921;28;20252;-42
2023/04/22 02:03:30;;;;;;;1.70;1.10;;;;;;;;;;5045931;28;20124;-44
2023/04/22 02:05:56;;;;;;;4.05;1.17;;;;;;;;;;5041810;28;20044;-42
2023/04/22 02:08:22;;;;;;;1.50;1.30;;;;;;;;;;5041408;28;20026;-42
2023/04/22 02:10:47;;;;;;;9.02;1.05;;;;;;;;;;5044721;28;20131;-43
2023/04/22 02:13:13;;;;;;;1.40;1.20;;;;;;;;;;5046731;28;20036;-43
2023/04/22 02:15:39;;;;;;;2.58;1.30;;;;;;;;;;5042961;28;20029;-44
2023/04/22 02:18:05;;;;;;;2.42;1.17;;;;;;;;;;5043276;28;20493;-45
2023/04/22 02:20:30;;;;;;;2.83;1.30;;;;;;;;;;5044740;28;20086;-42
2023/04/22 02:22:56;;;;;;;3.17;1.10;;;;;;;;;;5045439;28;20385;-42
2023/04/22 02:25:21;;;;;;;3.35;1.20;;;;;;;;;;5044635;28;20040;-43
2023/04/22 02:27:46;;;;;;;1.20;1.05;;;;;;;;;;5041089;28;20024;-48
2023/04/22 02:30:12;;;;;;;2.20;1.10;;;;;;;;;;5044480;28;20371;-42
2023/04/22 02:32:38;;;;;;;1.10;1.10;;;;;;;;;;5044118;28;20108;-47
2023/04/22 02:35:05;;;;;;;1.75;1.10;;;;;;;;;;5044042;28;20033;-42
2023/04/22 02:37:30;;;;;;;4.15;1.45;;;;;;;;;;5042852;28;20461;-45
2023/04/22 02:39:55;;;;;;;5.15;1.10;;;;;;;;;;5045500;28;20075;-44
2023/04/22 02:42:21;;;;;;;1.58;1.10;;;;;;;;;;5041223;28;20045;-48
2023/04/22 02:44:46;;;;;;;1.40;1.30;;;;;;;;;;5043914;28;20067;-51
2023/04/22 02:47:12;;;;;;;1.00;0.90;;;;;;;;;;5042949;28;20123;-46
2023/04/22 02:49:37;;;;;;;1.20;1.10;;;;;;;;;;5042219;28;20036;-49
2023/04/22 02:52:03;;;;;;;2.47;1.13;;;;;;;;;;5045599;28;20505;-46
2023/04/22 02:54:28;;;;;;;1.10;0.90;;;;;;;;;;5043931;28;20029;-42
2023/04/22 02:56:54;;;;;;;1.48;1.38;;;;;;;;;;5044262;28;20037;-43
2023/04/22 02:59:19;;;;;;;1.30;1.20;;;;;;;;;;5044273;28;20105;-42
2023/04/22 03:01:45;;;;;;;1.90;1.00;;;;;;;;;;5040246;28;20320;-42
2023/04/22 03:04:11;;;;;;;1.38;1.27;;;;;;;;;;5043400;28;20084;-42
2023/04/22 03:06:36;;;;;;;1.35;1.10;;;;;;;;;;5042375;28;20040;-42
2023/04/22 03:09:02;;;;;;;3.53;1.25;;;;;;;;;;5045178;28;20086;-41
2023/04/22 03:11:27;;;;;;;1.60;1.20;;;;;;;;;;5041756;28;20037;-42
2023/04/22 03:13:52;;;;;;;1.88;1.20;;;;;;;;;;5045313;28;20032;-47
2023/04/22 03:16:18;;;;;;;1.23;1.13;;;;;;;;;;5031752;28;20038;-46
2023/04/22 03:18:43;;;;;;;1.38;1.05;;;;;;;;;;5022004;28;20562;-43
2023/04/22 03:21:08;;;;;;;1.10;1.05;;;;;;;;;;5029675;28;20374;-43
2023/04/22 03:23:34;;;;;;;1.65;1.23;;;;;;;;;;5044784;28;20037;-44
2023/04/22 03:26:00;;;;;;;1.80;1.20;;;;;;;;;;5034763;28;20117;-48
2023/04/22 03:28:25;;;;;;;1.77;1.15;;;;;;;;;;5024355;28;20167;-45
2023/04/22 03:30:51;;;;;;;1.35;1.30;;;;;;;;;;5021411;28;20080;-42
2023/04/22 03:33:17;;;;;;;2.28;1.35;;;;;;;;;;5021285;28;20193;-43
2023/04/22 03:35:42;;;;;;;1.40;1.10;;;;;;;;;;5025067;28;20387;-43
2023/04/22 03:38:08;;;;;;;1.98;1.10;;;;;;;;;;5023288;28;20041;-45
2023/04/22 03:40:33;;;;;;;1.52;1.10;;;;;;;;;;5021800;28;20050;-46
2023/04/22 03:42:58;;;;;;;2.25;1.05;;;;;;;;;;5022425;28;20026;-45
2023/04/22 03:45:24;;;;;;;1.42;1.20;;;;;;;;;;5021493;28;20459;-44
2023/04/22 03:47:49;;;;;;;1.42;1.13;;;;;;;;;;5024511;28;20018;-47
2023/04/22 03:50:14;;;;;;;0.90;0.90;;;;;;;;;;5021325;28;20051;-44
2023/04/22 03:52:40;;;;;;;3.95;1.20;;;;;;;;;;5023091;28;20558;-44
2023/04/22 03:55:06;;;;;;;1.00;1.00;;;;;;;;;;5023826;28;20025;-44
2023/04/22 03:57:31;;;;;;;1.05;1.00;;;;;;;;;;5020376;28;20187;-42
2023/04/22 03:59:56;;;;;;;1.20;1.20;;;;;;;;;;5022353;28;20051;-42
2023/04/22 04:02:22;;;;;;;1.10;1.00;;;;;;;;;;5021952;28;20034;-46
2023/04/22 04:04:47;;;;;;;1.60;1.20;;;;;;;;;;5023665;28;20486;-47
2023/04/22 04:07:12;;;;;;;2.15;1.10;;;;;;;;;;5021341;28;20057;-44
2023/04/22 04:09:38;;;;;;;3.33;1.30;;;;;;;;;;5023860;28;20057;-47
2023/04/22 04:12:03;;;;;;;2.05;1.15;;;;;;;;;;5023647;28;20041;-45
2023/04/22 04:14:29;;;;;;;3.50;0.98;;;;;;;;;;5023578;28;20056;-43
2023/04/22 04:16:54;;;;;;;1.85;1.38;;;;;;;;;;5025180;28;20499;-46
2023/04/22 04:19:20;;;;;;;1.25;1.15;;;;;;;;;;5026839;28;20029;-48
2023/04/22 04:21:45;;;;;;;1.63;1.25;;;;;;;;;;5023690;28;20038;-43
2023/04/22 04:24:11;;;;;;;1.40;1.30;;;;;;;;;;5029211;28;20061;-49
2023/04/22 04:26:36;;;;;;;3.63;1.25;;;;;;;;;;5026753;28;20585;-48
2023/04/22 04:29:02;;;;;;;3.63;1.38;;;;;;;;;;5026367;28;20037;-47
2023/04/22 04:31:27;;;;;;;2.28;1.10;;;;;;;;;;5026098;28;20037;-45
2023/04/22 04:33:56;;;;;;;1.48;1.13;;;;;;;;;;5025792;28;20065;-48
2023/04/22 04:36:21;;;;;;;5.75;1.40;;;;;;;;;;5021978;28;20034;-46
2023/04/22 04:38:47;;;;;;;1.05;1.00;;;;;;;;;;5026376;28;20132;-48
2023/04/22 04:41:13;;;;;;;2.60;1.63;;;;;;;;;;5024508;28;20034;-45
2023/04/22 04:43:39;;;;;;;2.42;1.20;;;;;;;;;;5024007;28;20375;-46
2023/04/22 04:46:05;;;;;;;3.47;1.27;;;;;;;;;;5026619;28;20053;-43
2023/04/22 04:48:34;;;;;;;1.30;1.20;;;;;;;;;;5023085;28;20391;-46
2023/04/22 04:51:00;;;;;;;1.27;1.00;;;;;;;;;;5035235;28;20037;-51
2023/04/22 04:53:25;;;;;;;1.15;1.10;;;;;;;;;;5041392;28;20449;-48
2023/04/22 04:55:50;;;;;;;2.78;1.25;;;;;;;;;;5046184;28;20953;-47
2023/04/22 04:58:16;;;;;;;5.18;1.20;;;;;;;;;;5048510;28;20029;-47
2023/04/22 05:00:41;;;;;;;1.20;1.10;;;;;;;;;;5048548;28;20049;-41
2023/04/22 05:03:07;;;;;;;1.77;1.02;;;;;;;;;;5045055;28;20086;-42
2023/04/22 05:05:32;;;;;;;2.22;1.75;;;;;;;;;;5043047;28;20068;-41
2023/04/22 05:07:58;;;;;;;2.53;1.58;;;;;;;;;;5043381;28;23544;-41
2023/04/22 05:10:24;;;;;;;3.53;1.80;;;;;;;;;;5045659;28;20098;-43
2023/04/22 05:12:50;;;;;;;1.10;1.00;;;;;;;;;;5044730;28;20032;-42
2023/04/22 05:15:15;;;;;;;1.20;1.20;;;;;;;;;;5044502;28;20045;-42
2023/04/22 05:17:41;;;;;;;2.00;1.10;;;;;;;;;;5044734;28;20021;-42
2023/04/22 05:20:07;;;;;;;1.77;1.40;;;;;;;;;;5047151;28;20489;-41
2023/04/22 05:22:34;;;;;;;2.75;1.30;;;;;;;;;;5023759;28;20495;-41
2023/04/22 05:24:59;;;;;;;2.22;1.35;;;;;;;;;;5018203;28;20037;-41
2023/04/22 05:27:25;;;;;;;4.20;1.70;;;;;;;;;;5024466;28;20543;-42
2023/04/22 05:29:50;;;;;;;2.72;1.40;;;;;;;;;;5026509;28;20026;-44
2023/04/22 05:32:15;;;;;;;1.65;1.52;;;;;;;;;;5025054;28;20045;-43
2023/04/22 05:34:41;;;;;;;1.63;1.50;;;;;;;;;;5023675;28;20022;-42
2023/04/22 05:37:07;;;;;;;0.95;0.95;;;;;;;;;;5027453;28;21567;-42
2023/04/22 05:39:32;;;;;;;3.58;1.40;;;;;;;;;;5025075;28;20037;-42
2023/04/22 05:41:58;;;;;;;1.73;1.42;;;;;;;;;;5021767;28;20550;-41
2023/04/22 05:44:23;;;;;;;1.98;1.40;;;;;;;;;;5024895;28;20026;-41
2023/04/22 05:46:48;;;;;;;4.38;1.73;;;;;;;;;;5024417;28;20061;-42
2023/04/22 05:49:14;;;;;;;2.92;1.60;;;;;;;;;;5026763;28;20031;-41
2023/04/22 05:51:41;;;;;;;1.60;1.45;;;;;;;;;;5021082;28;20486;-42
2023/04/22 05:54:06;;;;;;;1.95;1.48;;;;;;;;;;5027620;28;20045;-41
2023/04/22 05:56:31;;;;;;;2.53;1.30;;;;;;;;;;5025633;28;20053;-41
2023/04/22 05:58:57;;;;;;;2.35;1.50;;;;;;;;;;5025900;28;20022;-41
2023/04/22 06:01:23;;;;;;;1.55;1.45;;;;;;;;;;5023339;28;20034;-41
2023/04/22 06:03:49;;;;;;;4.10;1.05;;;;;;;;;;5023397;28;20048;-42
2023/04/22 06:06:15;;;;;;;5.55;1.55;;;;;;;;;;5026876;28;20522;-42
2023/04/22 06:08:40;;;;;;;3.10;1.83;;;;;;;;;;5024403;28;20025;-42
2023/04/22 06:11:05;;;;;;;1.60;1.50;;;;;;;;;;5022767;28;20053;-41
2023/04/22 06:13:31;;;;;;;2.97;1.52;;;;;;;;;;5027604;28;20017;-41
2023/04/22 06:15:56;;;;;;;2.35;1.58;;;;;;;;;;5023295;28;20120;-41
2023/04/22 06:18:21;;;;;;;3.63;1.10;;;;;;;;;;5024976;28;20478;-41
2023/04/22 06:20:47;;;;;;;3.30;1.20;;;;;;;;;;5031256;28;20106;-41
2023/04/22 06:23:12;;;;;;;2.25;1.23;;;;;;;;;;5044932;28;20024;-41
2023/04/22 06:25:37;;;;;;;2.35;1.00;;;;;;;;;;5044956;28;20611;-41
2023/04/22 06:28:03;;;;;;;1.35;1.25;;;;;;;;;;5045809;28;20021;-41
2023/04/22 06:30:28;;;;;;;3.47;1.13;;;;;;;;;;5043454;28;20053;-41
2023/04/22 06:32:55;;;;;;;3.47;1.38;;;;;;;;;;5048716;28;20164;-41
2023/04/22 06:35:20;;;;;;;1.40;1.30;;;;;;;;;;5044062;28;20029;-41
2023/04/22 06:37:47;;;;;;;3.70;0.80;;;;;;;;;;5023822;28;20109;-41
2023/04/22 06:40:14;;;;;;;5.28;1.00;;;;;;;;;;5021887;28;20441;-40
2023/04/22 06:42:39;;;;;;;6.95;1.00;;;;;;;;;;5022527;28;20022;-40
2023/04/22 06:45:07;;;;;;;5.05;0.88;;;;;;;;;;5026775;28;20099;-41
2023/04/22 06:47:32;;;;;;;4.38;1.10;;;;;;;;;;5044003;28;20075;-40
2023/04/22 06:49:58;;;;;;;1.27;1.17;;;;;;;;;;5042615;28;20025;-45
2023/04/22 06:52:23;;;;;;;1.40;1.10;;;;;;;;;;5039980;28;20482;-41
2023/04/22 06:54:48;;;;;;;1.77;0.93;;;;;;;;;;5045280;28;20025;-44
2023/04/22 06:57:14;;;;;;;1.33;0.90;;;;;;;;;;5044086;28;20077;-42
2023/04/22 06:59:39;;;;;;;1.17;0.98;;;;;;;;;;5041929;28;20124;-45
2023/04/22 07:02:05;;;;;;;5.18;1.10;;;;;;;;;;5038848;28;20061;-42
2023/04/22 07:04:30;;;;;;;1.15;0.82;;;;;;;;;;5043793;28;20041;-41
2023/04/22 07:06:57;;;;;;;1.10;0.98;;;;;;;;;;5039557;28;20052;-41
2023/04/22 07:09:22;;;;;;;1.00;0.85;;;;;;;;;;5042666;28;20037;-41
2023/04/22 07:11:47;;;;;;;3.40;1.00;;;;;;;;;;5043525;28;20045;-41
2023/04/22 07:14:13;;;;;;;1.33;0.93;;;;;;;;;;5043602;28;20044;-45
2023/04/22 07:16:38;;;;;;;1.13;0.90;;;;;;;;;;5044176;28;20053;-41
2023/04/22 07:19:04;;;;;;;1.15;0.82;;;;;;;;;;5042382;28;20029;-43
2023/04/22 07:21:31;;;;;;;7.72;1.80;;;;;;;;;;5042070;28;20041;-41
2023/04/22 07:23:57;;;;;;;1.40;1.05;;;;;;;;;;5043611;28;20036;-47
2023/04/22 07:26:23;;;;;;;1.10;0.73;;;;;;;;;;5045006;28;20521;-40
2023/04/22 07:28:48;;;;;;;1.70;0.88;;;;;;;;;;5039488;28;20035;-40
2023/04/22 07:31:13;;;;;;;1.63;0.90;;;;;;;;;;5043622;28;20129;-44
2023/04/22 07:33:39;;;;;;;1.05;0.95;;;;;;;;;;5041678;28;20025;-42
2023/04/22 07:36:05;;;;;;;7.05;1.00;;;;;;;;;;5040978;28;20041;-42
2023/04/22 07:38:30;;;;;;;1.67;0.98;;;;;;;;;;5043414;28;20016;-43
2023/04/22 07:40:56;;;;;;;1.25;0.70;;;;;;;;;;5043530;28;20053;-41
2023/04/22 07:43:21;;;;;;;0.88;0.88;;;;;;;;;;5044414;28;20032;-42
2023/04/22 07:45:46;;;;;;;4.78;0.90;;;;;;;;;;5043488;28;20127;-41
2023/04/22 07:48:12;;;;;;;2.10;1.13;;;;;;;;;;5042625;28;20389;-40
2023/04/22 07:50:37;;;;;;;1.02;0.80;;;;;;;;;;5049604;28;20033;-41
2023/04/22 07:53:02;;;;;;;1.05;1.00;;;;;;;;;;5049271;28;20102;-41
2023/04/22 07:55:28;;;;;;;3.53;1.00;;;;;;;;;;5047323;28;20033;-42
2023/04/22 07:57:53;;;;;;;3.45;0.80;;;;;;;;;;5046367;28;20461;-40
2023/04/22 08:00:19;;;;;;;1.67;1.10;;;;;;;;;;5045803;28;20029;-41
2023/04/22 08:02:45;;;;;;;3.70;1.10;;;;;;;;;;5048933;28;21150;-40
2023/04/22 08:05:11;;;;;;;0.93;0.85;;;;;;;;;;5047871;28;20029;-41
2023/04/22 08:07:36;;;;;;;1.08;1.05;;;;;;;;;;5045454;28;20093;-41
2023/04/22 08:10:02;;;;;;;1.15;0.90;;;;;;;;;;5048974;28;20076;-41
2023/04/22 08:12:27;;;;;;;15.05;1.10;;;;;;;;;;5047939;28;20129;-41
2023/04/22 08:14:53;;;;;;;0.80;0.80;;;;;;;;;;5048393;28;20041;-42
2023/04/22 08:17:20;;;;;;;3.00;1.00;;;;;;;;;;5024765;28;20042;-41
2023/04/22 08:19:47;;;;;;;1.88;0.80;;;;;;;;;;5026597;28;20026;-41
2023/04/22 08:22:13;;;;;;;5.18;2.55;;;;;;;;;;5029189;28;20038;-39
2023/04/22 08:24:38;;;;;;;9.77;7.50;;;;;;;;;;5026838;28;20021;-41
2023/04/22 08:27:04;;;;;;;11.05;5.22;;;;;;;;;;5027016;28;20429;-42
2023/04/22 08:29:29;;;;;;;11.02;5.57;;;;;;;;;;5024648;28;20026;-41
2023/04/22 08:31:55;;;;;;;4.93;3.40;;;;;;;;;;5027228;28;20127;-44
2023/04/22 08:34:20;;;;;;;3.33;1.92;;;;;;;;;;5028167;28;20044;-41
2023/04/22 08:36:46;;;;;;;4.75;1.90;;;;;;;;;;5028371;28;20559;-41
2023/04/22 08:39:11;;;;;;;3.85;1.73;;;;;;;;;;5028685;28;20041;-42
2023/04/22 08:41:38;;;;;;;9.50;2.47;;;;;;;;;;5024709;28;20041;-44
2023/04/22 08:44:04;;;;;;;1.55;1.20;;;;;;;;;;5026914;28;20033;-41
2023/04/22 08:46:30;;;;;;;4.13;0.95;;;;;;;;;;5025572;28;20497;-42
2023/04/22 08:49:02;;;;;;;2.33;0.88;;;;;;;;;;5027412;28;20034;-41
2023/04/22 08:51:27;;;;;;;3.25;1.67;;;;;;;;;;5022367;28;20383;-42
2023/04/22 08:53:53;;;;;;;7.40;1.52;;;;;;;;;;5026423;28;20036;-45
2023/04/22 08:56:19;;;;;;;4.68;0.80;;;;;;;;;;5024902;28;20026;-41
2023/04/22 08:58:45;;;;;;;1.67;0.70;;;;;;;;;;5024171;28;20038;-41
2023/04/22 09:01:12;;;;;;;0.60;0.60;;;;;;;;;;5024228;28;20037;-44
2023/04/22 09:03:41;;;;;;;3.20;0.63;;;;;;;;;;5028508;28;20044;-41
2023/04/22 09:06:09;;;;;;;4.05;0.80;;;;;;;;;;5025922;28;20502;-41
2023/04/22 09:08:34;;;;;;;3.05;1.70;;;;;;;;;;5026223;28;20060;-44
2023/04/22 09:11:00;;;;;;;2.85;1.20;;;;;;;;;;5024660;28;20061;-40
2023/04/22 09:13:25;;;;;;;3.80;1.00;;;;;;;;;;5026685;28;20048;-41
2023/04/22 09:15:51;;;;;;;1.67;0.98;;;;;;;;;;5024928;28;20041;-40
2023/04/22 09:18:20;;;;;;;3.28;0.90;;;;;;;;;;5026291;28;20381;-42
2023/04/22 09:20:47;;;;;;;1.40;1.00;;;;;;;;;;5027700;28;20406;-41
2023/04/22 09:23:13;;;;;;;3.17;0.95;;;;;;;;;;5023465;28;20091;-42
2023/04/22 09:25:39;;;;;;;5.05;0.90;;;;;;;;;;5024328;28;20045;-41
2023/04/22 09:28:05;;;;;;;3.17;0.93;;;;;;;;;;5022808;28;20025;-41
2023/04/22 09:30:34;;;;;;;1.20;0.65;;;;;;;;;;5026853;28;20046;-41
2023/04/22 09:33:03;;;;;;;3.97;0.82;;;;;;;;;;5026292;28;20104;-43
2023/04/22 09:35:33;;;;;;;2.60;1.00;;;;;;;;;;5026718;28;20133;-44
2023/04/22 09:38:01;;;;;;;2.65;0.88;;;;;;;;;;5023271;28;20026;-42
2023/04/22 09:40:27;;;;;;;1.77;0.68;;;;;;;;;;5023456;28;21049;-49
2023/04/22 09:42:55;;;;;;;1.10;0.80;;;;;;;;;;5025715;28;20053;-42
2023/04/22 09:45:31;;;;;;;1.48;0.73;;;;;;;;;;5027064;28;20152;-43
2023/04/22 09:48:13;;;;;;;1.52;0.70;;;;;;;;;;5044881;28;20033;-41
2023/04/22 09:50:42;;;;;;;1.38;0.80;;;;;;;;;;5044084;28;20497;-45
2023/04/22 09:53:10;;;;;;;1.45;1.00;;;;;;;;;;5046866;28;20033;-41
2023/04/22 09:55:41;;;;;;;1.52;1.00;;;;;;;;;;5043476;28;20045;-41
2023/04/22 09:58:11;;;;;;;1.27;0.90;;;;;;;;;;5044921;28;20029;-42
2023/04/22 10:00:49;;;;;;;1.85;0.90;;;;;;;;;;5040831;28;20049;-41
2023/04/22 10:03:14;;;;;;;0.90;0.90;;;;;;;;;;5046035;28;20044;-44
2023/04/22 10:05:41;;;;;;;0.80;0.80;;;;;;;;;;5043913;28;20470;-41
2023/04/22 10:08:09;;;;;;;2.25;0.70;;;;;;;;;;5046732;28;20039;-44
2023/04/22 10:10:35;;;;;;;10.85;1.17;;;;;;;;;;5045615;28;20043;-45
2023/04/22 10:13:03;;;;;;;2.08;0.73;;;;;;;;;;5045084;28;20025;-41
2023/04/22 10:15:52;;;;;;;0.90;0.73;;;;;;;;;;5043038;28;20093;-40
2023/04/22 10:18:23;;;;;;;1.20;1.00;;;;;;;;;;5032558;28;20555;-41
2023/04/22 10:20:50;;;;;;;5.93;0.80;;;;;;;;;;5043984;28;20412;-41
2023/04/22 10:23:21;;;;;;;1.90;0.88;;;;;;;;;;5045197;28;20449;-41
2023/04/22 10:25:52;;;;;;;1.05;1.00;;;;;;;;;;5043480;28;20037;-42
2023/04/22 10:28:20;;;;;;;0.57;0.57;;;;;;;;;;5044353;28;20436;-42
2023/04/22 10:30:46;;;;;;;0.98;0.98;;;;;;;;;;5045921;28;20046;-42
2023/04/22 10:33:20;;;;;;;2.08;1.38;;;;;;;;;;5044859;28;20385;-43
2023/04/22 10:36:07;;;;;;;3.75;1.15;;;;;;;;;;5045145;28;20052;-41
2023/04/22 10:38:53;;;;;;;2.50;0.95;;;;;;;;;;5043030;28;20525;-46
2023/04/22 10:41:25;;;;;;;0.80;0.73;;;;;;;;;;5034151;28;20044;-41
2023/04/22 10:43:57;;;;;;;4.65;1.13;;;;;;;;;;5045419;28;20021;-42
2023/04/22 10:46:33;;;;;;;;;;;;;;;;;;5045034;28;20040;-42
2023/04/22 10:49:08;;;;;;;2.35;1.10;;;;;;;;;;5039658;28;20392;-45
2023/04/22 10:51:41;;;;;;;1.92;0.90;;;;;;;;;;5043691;28;20611;-44
2023/04/22 10:54:36;;;;;;;3.80;1.00;;;;;;;;;;5042128;28;20025;-44
2023/04/22 10:57:05;;;;;;;1.15;0.95;;;;;;;;;;5042030;28;20048;-42
2023/04/22 10:59:32;;;;;;;2.38;1.08;;;;;;;;;;5043486;28;20036;-43
2023/04/22 11:02:02;;;;;;;2.60;0.98;;;;;;;;;;5044149;28;20041;-45
2023/04/22 11:04:27;;;;;;;0.85;0.80;;;;;;;;;;5046488;28;20432;-42
2023/04/22 11:07:15;;;;;;;2.70;1.10;;;;;;;;;;5043100;28;20052;-45
2023/04/22 11:09:43;;;;;;;1.20;1.10;;;;;;;;;;5044758;28;20465;-42
2023/04/22 11:12:34;;;;;;;2.35;1.27;;;;;;;;;;5041851;28;20053;-43
2023/04/22 11:15:14;;;;;;;9.07;1.67;;;;;;;;;;5041229;28;20116;-42
2023/04/22 11:17:48;;;;;;;4.53;1.30;;;;;;;;;;5044003;28;20132;-45
2023/04/22 11:20:17;;;;;;;3.58;1.35;;;;;;;;;;5045258;28;20401;-43
2023/04/22 11:22:47;;;;;;;4.13;1.30;;;;;;;;;;5041515;28;20075;-45
2023/04/22 11:25:13;;;;;;;4.07;1.02;;;;;;;;;;5041359;28;20619;-42
2023/04/22 11:27:39;;;;;;;2.20;0.70;;;;;;;;;;5043511;28;20045;-42
2023/04/22 11:30:07;;;;;;;2.50;1.00;;;;;;;;;;5046120;28;20039;-45
2023/04/22 11:32:36;;;;;;;2.67;1.20;;;;;;;;;;5044277;28;20095;-44
2023/04/22 11:35:04;;;;;;;3.65;1.10;;;;;;;;;;5043230;28;20041;-42
2023/04/22 11:37:29;;;;;;;3.78;1.30;;;;;;;;;;5040010;28;20040;-48
2023/04/22 11:40:02;;;;;;;3.33;1.17;;;;;;;;;;5044114;28;20096;-44
2023/04/22 11:42:28;;;;;;;3.70;1.10;;;;;;;;;;5044202;28;20053;-46
2023/04/22 11:44:54;;;;;;;2.15;1.10;;;;;;;;;;5044413;28;20059;-42
2023/04/22 11:47:19;;;;;;;4.55;1.25;;;;;;;;;;5042550;28;20040;-42
2023/04/22 11:49:59;;;;;;;2.05;1.33;;;;;;;;;;5042779;28;20039;-44
2023/04/22 11:52:53;;;;;;;4.90;1.60;;;;;;;;;;5043072;28;20576;-41
2023/04/22 11:55:29;;;;;;;6.65;1.50;;;;;;;;;;5038479;28;20519;-47
2023/04/22 11:58:13;;;;;;;7.30;1.13;;;;;;;;;;5040911;28;20025;-45
2023/04/22 12:00:44;;;;;;;4.78;1.20;;;;;;;;;;5040822;28;20102;-41
2023/04/22 12:03:13;;;;;;;1.27;1.05;;;;;;;;;;5043759;28;20062;-45
2023/04/22 12:05:41;;;;;;;4.78;1.33;;;;;;;;;;5042403;28;20079;-44
2023/04/22 12:08:15;;;;;;;1.90;1.20;;;;;;;;;;5041775;28;20401;-42
2023/04/22 12:10:47;;;;;;;1.30;1.20;;;;;;;;;;5042887;28;20041;-42
2023/04/22 12:13:23;;;;;;;6.32;1.50;;;;;;;;;;5042764;28;20098;-43
2023/04/22 12:15:54;;;;;;;4.47;1.77;;;;;;;;;;5041346;28;20045;-42
2023/04/22 12:18:40;;;;;;;4.75;1.35;;;;;;;;;;5044779;28;20059;-48
2023/04/22 12:21:06;;;;;;;4.40;1.50;;;;;;;;;;5040908;28;20080;-42
2023/04/22 12:23:51;;;;;;;4.82;1.70;;;;;;;;;;5042165;28;20048;-49
2023/04/22 12:26:19;;;;;;;7.65;1.70;;;;;;;;;;5040760;28;20502;-46
2023/04/22 12:28:45;;;;;;;6.47;2.10;;;;;;;;;;5043185;28;20482;-46
2023/04/22 12:31:11;;;;;;;7.70;2.03;;;;;;;;;;5039941;28;20044;-45
2023/04/22 12:33:37;;;;;;;4.38;1.80;;;;;;;;;;5041512;28;20382;-48
2023/04/22 12:36:03;;;;;;;2.88;1.35;;;;;;;;;;5045820;28;20041;-45
2023/04/22 12:38:29;;;;;;;3.90;1.80;;;;;;;;;;5046477;28;20499;-43
2023/04/22 12:40:54;;;;;;;8.60;1.65;;;;;;;;;;5045449;28;20037;-44
2023/04/22 12:43:20;;;;;;;5.43;1.80;;;;;;;;;;5048415;28;21369;-45
2023/04/22 12:45:46;;;;;;;5.88;1.70;;;;;;;;;;5046086;28;20339;-47
2023/04/22 12:48:11;;;;;;;3.08;1.38;;;;;;;;;;5047630;28;20044;-46
2023/04/22 12:50:36;;;;;;;8.82;2.28;;;;;;;;;;5045700;28;20029;-43
2023/04/22 12:53:02;;;;;;;4.82;1.65;;;;;;;;;;5046731;28;20036;-43
2023/04/22 12:55:28;;;;;;;9.95;3.08;;;;;;;;;;5046066;28;20083;-44
2023/04/22 12:57:53;;;;;;;5.68;1.92;;;;;;;;;;5046278;28;20028;-47
2023/04/22 13:00:19;;;;;;;5.88;1.80;;;;;;;;;;5048271;28;20033;-45
2023/04/22 13:02:48;;;;;;;4.45;1.80;;;;;;;;;;5048958;28;20040;-42
2023/04/22 13:05:14;;;;;;;2.92;1.60;;;;;;;;;;5049292;28;20040;-49
2023/04/22 13:07:40;;;;;;;6.90;1.80;;;;;;;;;;5046263;28;20123;-44
2023/04/22 13:10:07;;;;;;;5.25;1.60;;;;;;;;;;5046706;28;20036;-46
2023/04/22 13:12:33;;;;;;;4.97;1.63;;;;;;;;;;5047227;28;20072;-47
2023/04/22 13:14:58;;;;;;;4.75;1.60;;;;;;;;;;5047636;28;20505;-43
2023/04/22 13:17:25;;;;;;;13.18;2.60;;;;;;;;;;5047889;28;20048;-44
2023/04/22 13:19:50;;;;;;;4.10;1.60;;;;;;;;;;5045225;28;20466;-44
2023/04/22 13:22:16;;;;;;;4.65;1.67;;;;;;;;;;5048288;28;20074;-46
2023/04/22 13:24:42;;;;;;;3.53;1.65;;;;;;;;;;5044833;28;20470;-44
2023/04/22 13:27:07;;;;;;;6.05;1.73;;;;;;;;;;5046258;28;20029;-45
2023/04/22 13:29:33;;;;;;;5.85;1.85;;;;;;;;;;5045590;28;20470;-47
2023/04/22 13:31:59;;;;;;;8.13;1.88;;;;;;;;;;5043049;28;20486;-48
2023/04/22 13:34:24;;;;;;;3.60;1.83;;;;;;;;;;5042085;28;20036;-42
2023/04/22 13:36:50;;;;;;;8.45;2.00;;;;;;;;;;5044589;28;20919;-49
2023/04/22 13:39:16;;;;;;;3.95;1.70;;;;;;;;;;5044826;28;20025;-48
2023/04/22 13:41:43;;;;;;;3.33;1.63;;;;;;;;;;5045880;28;20039;-44
2023/04/22 13:44:11;;;;;;;8.85;2.17;;;;;;;;;;5044579;28;20737;-43
2023/04/22 13:46:36;;;;;;;16.70;2.00;;;;;;;;;;5044009;28;20033;-43
2023/04/22 13:49:02;;;;;;;5.05;1.75;;;;;;;;;;5046021;28;20027;-50
2023/04/22 13:51:28;;;;;;;7.55;1.70;;;;;;;;;;5043073;28;20057;-49
2023/04/22 13:53:53;;;;;;;7.57;1.70;;;;;;;;;;5043556;28;20037;-42
2023/04/22 13:56:18;;;;;;;5.78;1.80;;;;;;;;;;5044816;28;20045;-44
2023/04/22 13:58:44;;;;;;;11.48;2.05;;;;;;;;;;5045139;28;20051;-46
2023/04/22 14:01:09;;;;;;;8.25;2.35;;;;;;;;;;5043023;28;20029;-46
2023/04/22 14:03:35;;;;;;;4.57;2.05;;;;;;;;;;5044162;28;20031;-45
2023/04/22 14:06:01;;;;;;;6.15;1.92;;;;;;;;;;5043078;28;20046;-50
2023/04/22 14:08:26;;;;;;;5.63;1.60;;;;;;;;;;5043081;28;20037;-45
2023/04/22 14:10:53;;;;;;;3.92;1.83;;;;;;;;;;5044633;28;20501;-47
2023/04/22 14:13:20;;;;;;;6.50;2.33;;;;;;;;;;5047527;28;20029;-48
2023/04/22 14:15:45;;;;;;;5.30;2.05;;;;;;;;;;5043368;28;20037;-43
2023/04/22 14:18:11;;;;;;;8.20;2.25;;;;;;;;;;5043504;28;20026;-43
2023/04/22 14:20:37;;;;;;;14.95;2.53;;;;;;;;;;5044602;28;20048;-43
2023/04/22 14:23:04;;;;;;;3.70;1.60;;;;;;;;;;5043113;28;20439;-43
2023/04/22 14:25:30;;;;;;;4.63;1.88;;;;;;;;;;5048324;28;20041;-42
2023/04/22 14:27:55;;;;;;;6.10;2.53;;;;;;;;;;5047118;28;20048;-43
2023/04/22 14:30:20;;;;;;;4.88;1.92;;;;;;;;;;5044695;28;20125;-43
2023/04/22 14:32:46;;;;;;;7.78;2.28;;;;;;;;;;5042393;28;20032;-41
2023/04/22 14:35:12;;;;;;;11.30;2.13;;;;;;;;;;5045830;28;20044;-41
2023/04/22 14:37:38;;;;;;;12.20;2.22;;;;;;;;;;5045350;28;20040;-42
2023/04/22 14:40:04;;;;;;;6.90;1.90;;;;;;;;;;5043732;28;20063;-43
2023/04/22 14:42:30;;;;;;;7.40;2.50;;;;;;;;;;5045009;28;20529;-43